Time;durP1;ratioP1;P1;durP2;ratioP2;P2;SDS_P1;SDS_P2;PMS_P1;PMS_P2;Temp;Humidity;BMP_temperature;BMP_pressure;BME280_temperature;BME280_humidity;BME280_pressure;Samples;Min_cycle;Max_cycle;Signal;HPM_P1;HPM_P2
2022/12/30 00:00:44;;;;;;;11.50;2.00;;;6.50;99.90;;;;;;4991119;28;20050;-47
2022/12/30 00:03:09;;;;;;;15.30;2.22;;;6.40;99.90;;;;;;4991118;28;20034;-55
2022/12/30 00:05:35;;;;;;;9.98;1.58;;;6.50;99.90;;;;;;4987732;28;20030;-51
2022/12/30 00:08:01;;;;;;;16.95;1.95;;;6.40;99.90;;;;;;4990104;28;20030;-46
2022/12/30 00:10:27;;;;;;;16.65;3.67;;;6.50;99.90;;;;;;4987190;28;20093;-48
2022/12/30 00:34:59;;;;;;;15.13;1.77;;;6.80;99.90;;;;;;4991430;28;20401;-51
2022/12/30 00:37:25;;;;;;;11.38;2.35;;;6.80;99.90;;;;;;4991288;28;20022;-51
2022/12/30 00:39:50;;;;;;;10.65;1.67;;;6.80;99.90;;;;;;4991077;28;20025;-49
2022/12/30 00:45:00;;;;;;;17.50;2.05;;;6.80;99.90;;;;;;4991578;28;20100;-49
2022/12/30 00:47:26;;;;;;;19.23;2.17;;;6.80;99.90;;;;;;4991327;28;20469;-55
2022/12/30 00:58:04;;;;;;;15.57;2.38;;;7.60;99.90;;;;;;4991350;28;20142;-49
2022/12/30 01:00:29;;;;;;;16.83;2.20;;;7.80;99.90;;;;;;4991072;28;20030;-48
2022/12/30 01:02:55;;;;;;;22.65;2.15;;;8.00;99.90;;;;;;4994797;28;20154;-46
2022/12/30 01:05:20;;;;;;;13.27;2.08;;;8.20;99.90;;;;;;4994933;28;20408;-49
2022/12/30 01:07:46;;;;;;;15.63;2.78;;;8.30;99.90;;;;;;4994608;28;20027;-50
2022/12/30 01:10:12;;;;;;;16.40;2.10;;;8.50;99.90;;;;;;4994082;28;20027;-50
2022/12/30 01:12:38;;;;;;;17.48;1.95;;;8.50;99.90;;;;;;4994780;28;20100;-50
2022/12/30 01:15:04;;;;;;;21.10;2.58;;;8.60;99.90;;;;;;4994440;28;20378;-47
2022/12/30 01:17:31;;;;;;;22.17;2.95;;;8.60;99.90;;;;;;4994676;28;20023;-47
2022/12/30 01:19:58;;;;;;;25.90;3.63;;;8.70;99.90;;;;;;4994515;28;20037;-45
2022/12/30 01:22:23;;;;;;;15.10;2.40;;;8.80;99.90;;;;;;4976965;28;20642;-45
2022/12/30 01:24:49;;;;;;;18.75;2.25;;;8.80;99.90;;;;;;4994567;28;20505;-46
2022/12/30 01:27:15;;;;;;;23.23;3.90;;;8.80;99.90;;;;;;4994607;28;20027;-49
2022/12/30 01:29:42;;;;;;;26.52;2.40;;;8.70;99.90;;;;;;4994242;28;20065;-48
2022/12/30 01:32:17;;;;;;;16.70;2.47;;;8.70;99.90;;;;;;4994511;28;20402;-54
2022/12/30 01:34:43;;;;;;;20.67;2.78;;;8.60;99.90;;;;;;4994237;28;20042;-51
2022/12/30 01:37:10;;;;;;;12.43;2.20;;;8.60;99.90;;;;;;4994481;28;20377;-50
2022/12/30 01:39:35;;;;;;;14.68;2.28;;;8.60;99.90;;;;;;4994187;28;20111;-46
2022/12/30 01:42:02;;;;;;;17.42;2.15;;;8.60;99.90;;;;;;4994255;28;20026;-46
2022/12/30 01:44:48;;;;;;;13.13;2.20;;;8.60;99.90;;;;;;4993615;28;20034;-48
2022/12/30 01:47:44;;;;;;;17.77;2.53;;;8.70;99.90;;;;;;4994309;28;20030;-49
2022/12/30 01:50:09;;;;;;;20.55;2.30;;;8.70;99.90;;;;;;4993957;28;20371;-50
2022/12/30 01:52:37;;;;;;;13.50;2.20;;;8.70;99.90;;;;;;4993862;28;20073;-48
2022/12/30 01:55:09;;;;;;;17.02;2.28;;;8.70;99.90;;;;;;4993787;28;20031;-54
2022/12/30 01:57:38;;;;;;;20.08;2.58;;;8.70;99.90;;;;;;4994047;28;20737;-53
2022/12/30 02:00:05;;;;;;;25.53;3.07;;;8.80;99.90;;;;;;4993733;28;20030;-49
2022/12/30 02:02:31;;;;;;;18.70;2.38;;;8.80;99.90;;;;;;4993804;28;20026;-49
2022/12/30 02:04:58;;;;;;;19.38;2.80;;;8.70;99.90;;;;;;4993736;28;20034;-48
2022/12/30 02:07:37;;;;;;;17.08;2.90;;;8.70;99.90;;;;;;4993881;28;20030;-48
2022/12/30 02:10:03;;;;;;;13.30;1.80;;;8.70;99.90;;;;;;4993614;28;20057;-50
2022/12/30 02:12:29;;;;;;;16.25;2.60;;;8.70;99.90;;;;;;4993526;28;20053;-48
2022/12/30 02:14:56;;;;;;;15.38;2.60;;;8.70;99.90;;;;;;4993653;28;20397;-46
2022/12/30 02:17:21;;;;;;;17.85;2.55;;;8.60;99.90;;;;;;4993532;28;20018;-49
2022/12/30 02:20:12;;;;;;;16.60;2.90;;;8.70;99.90;;;;;;4993319;28;20026;-54
2022/12/30 02:22:53;;;;;;;29.75;3.17;;;8.80;99.90;;;;;;4993403;28;20030;-46
2022/12/30 02:25:44;;;;;;;13.80;2.58;;;8.70;99.90;;;;;;4993354;28;20050;-52
2022/12/30 02:28:43;;;;;;;24.65;3.25;;;8.70;99.90;;;;;;4993322;28;20041;-46
2022/12/30 02:31:21;;;;;;;20.55;2.67;;;8.60;99.90;;;;;;4993315;28;20022;-45
2022/12/30 02:33:58;;;;;;;12.65;3.00;;;8.60;99.90;;;;;;4993165;28;20038;-45
2022/12/30 02:36:49;;;;;;;14.48;2.55;;;8.60;99.90;;;;;;4993003;28;20454;-47
2022/12/30 02:39:42;;;;;;;14.45;2.40;;;8.60;99.90;;;;;;4993477;28;20108;-46
2022/12/30 02:45:14;;;;;;;21.52;2.50;;;8.60;99.90;;;;;;4993042;28;20092;-51
2022/12/30 02:47:55;;;;;;;16.25;2.75;;;8.60;99.90;;;;;;4993068;28;20027;-49
2022/12/30 02:53:11;;;;;;;14.25;2.85;;;8.60;99.90;;;;;;4992883;28;20449;-48
2022/12/30 02:55:37;;;;;;;15.38;2.53;;;8.60;99.90;;;;;;4993007;28;20038;-47
2022/12/30 02:58:03;;;;;;;17.70;2.53;;;8.50;99.90;;;;;;4992776;28;20041;-45
2022/12/30 03:06:56;;;;;;;17.08;2.40;;;8.60;99.90;;;;;;4982650;28;20031;-49
2022/12/30 03:09:42;;;;;;;16.27;2.33;;;8.60;99.90;;;;;;4983143;28;20022;-46
2022/12/30 03:12:21;;;;;;;12.38;2.00;;;8.60;99.90;;;;;;4992152;28;20362;-52
2022/12/30 03:14:56;;;;;;;18.88;2.22;;;8.60;99.90;;;;;;4979834;28;20429;-46
2022/12/30 03:17:30;;;;;;;21.40;2.63;;;8.60;99.90;;;;;;4982589;28;20022;-48
2022/12/30 03:20:00;;;;;;;20.20;2.67;;;8.60;99.90;;;;;;4992213;28;20031;-47
2022/12/30 03:28:04;;;;;;;13.15;2.03;;;8.50;99.90;;;;;;4992222;28;20041;-46
2022/12/30 03:30:32;;;;;;;16.90;3.45;;;8.50;99.90;;;;;;4991787;28;20034;-48
2022/12/30 03:32:58;;;;;;;15.73;2.05;;;8.50;99.90;;;;;;4992011;28;20026;-48
2022/12/30 03:35:27;;;;;;;15.35;2.33;;;8.50;99.90;;;;;;4991931;28;20428;-50
2022/12/30 03:37:56;;;;;;;16.60;2.58;;;8.60;99.90;;;;;;4991894;28;20548;-48
2022/12/30 03:40:29;;;;;;;20.77;2.38;;;8.50;99.90;;;;;;4992103;28;20034;-46
2022/12/30 03:42:55;;;;;;;8.40;1.70;;;8.60;99.90;;;;;;4991752;28;20041;-51
2022/12/30 03:45:22;;;;;;;14.43;2.15;;;8.60;99.90;;;;;;4991668;28;20030;-46
2022/12/30 03:47:47;;;;;;;16.15;1.90;;;8.60;99.90;;;;;;4991322;28;20084;-47
2022/12/30 03:50:13;;;;;;;13.60;2.40;;;8.70;99.90;;;;;;4991689;28;20120;-46
2022/12/30 03:52:39;;;;;;;14.45;2.13;;;8.70;99.90;;;;;;4991844;28;20062;-48
2022/12/30 03:55:05;;;;;;;12.18;1.90;;;8.70;99.90;;;;;;4991471;28;20022;-49
2022/12/30 03:57:31;;;;;;;12.07;1.95;;;8.70;99.90;;;;;;4991419;28;20030;-55
2022/12/30 03:59:57;;;;;;;15.18;1.80;;;8.70;99.90;;;;;;4991371;28;20034;-48
2022/12/30 04:02:23;;;;;;;14.35;1.83;;;8.70;99.90;;;;;;4991654;28;20121;-53
2022/12/30 04:04:48;;;;;;;16.63;2.08;;;8.70;99.90;;;;;;4991560;28;20023;-50
2022/12/30 04:07:14;;;;;;;13.80;2.28;;;8.70;99.90;;;;;;4991653;28;20038;-51
2022/12/30 04:09:40;;;;;;;7.97;1.60;;;8.70;99.90;;;;;;4974059;28;20489;-46
2022/12/30 04:12:05;;;;;;;12.73;2.05;;;8.70;99.90;;;;;;4999111;28;20511;-48
2022/12/30 04:14:31;;;;;;;16.27;2.30;;;8.70;99.90;;;;;;5010879;28;20042;-49
2022/12/30 04:16:57;;;;;;;14.82;2.28;;;8.70;99.90;;;;;;5011093;28;20076;-54
2022/12/30 04:19:23;;;;;;;14.93;1.73;;;8.70;99.90;;;;;;5010866;28;20451;-46
2022/12/30 04:21:48;;;;;;;17.30;2.22;;;8.70;99.90;;;;;;5010921;28;20022;-47
2022/12/30 04:24:14;;;;;;;17.17;2.03;;;8.70;99.90;;;;;;5010795;28;20042;-50
2022/12/30 04:26:40;;;;;;;16.00;2.58;;;8.70;99.90;;;;;;5010804;28;20025;-47
2022/12/30 04:29:06;;;;;;;14.32;2.10;;;8.70;99.90;;;;;;5010341;28;20084;-50
2022/12/30 04:31:32;;;;;;;14.80;2.42;;;8.70;99.90;;;;;;5010724;28;20041;-51
2022/12/30 04:33:57;;;;;;;13.45;2.75;;;8.70;99.90;;;;;;5010736;28;20408;-47
2022/12/30 04:36:23;;;;;;;12.25;2.30;;;8.60;99.90;;;;;;5016197;28;20042;-46
2022/12/30 04:38:49;;;;;;;21.88;2.80;;;8.70;99.90;;;;;;4999614;28;20045;-51
2022/12/30 04:41:14;;;;;;;18.10;2.22;;;8.70;99.90;;;;;;5017276;28;20497;-46
2022/12/30 04:43:40;;;;;;;16.00;2.40;;;8.70;99.90;;;;;;4999375;28;20033;-48
2022/12/30 04:46:06;;;;;;;13.32;2.28;;;8.60;99.90;;;;;;5017086;28;20097;-55
2022/12/30 04:48:32;;;;;;;15.75;1.95;;;8.60;99.90;;;;;;5016951;28;20021;-49
2022/12/30 04:50:58;;;;;;;14.90;2.20;;;8.60;99.90;;;;;;5017418;28;20069;-45
2022/12/30 04:53:24;;;;;;;14.43;1.90;;;8.60;99.90;;;;;;5017122;28;20215;-46
2022/12/30 04:55:54;;;;;;;12.27;2.15;;;8.60;99.90;;;;;;5017102;28;20033;-49
2022/12/30 04:58:20;;;;;;;12.48;2.25;;;8.60;99.90;;;;;;5017165;28;20030;-48
2022/12/30 05:00:48;;;;;;;11.00;1.80;;;8.60;99.90;;;;;;5017021;28;20101;-45
2022/12/30 05:03:13;;;;;;;19.50;2.35;;;8.60;99.90;;;;;;5017207;28;20469;-50
2022/12/30 05:05:39;;;;;;;19.45;2.28;;;8.70;99.90;;;;;;5016934;28;20022;-46
2022/12/30 05:08:05;;;;;;;14.18;1.90;;;8.60;99.90;;;;;;5017065;28;20025;-46
2022/12/30 05:10:33;;;;;;;13.90;2.15;;;8.60;99.90;;;;;;5016465;28;20030;-45
2022/12/30 05:12:59;;;;;;;15.20;1.92;;;8.60;99.90;;;;;;5016997;28;20088;-49
2022/12/30 05:15:24;;;;;;;10.57;2.20;;;8.60;99.90;;;;;;5017134;28;20021;-50
2022/12/30 05:17:50;;;;;;;19.15;2.40;;;8.70;99.90;;;;;;5016916;28;20030;-48
2022/12/30 05:20:16;;;;;;;14.90;2.40;;;8.70;99.90;;;;;;5016883;28;20025;-51
2022/12/30 05:22:41;;;;;;;13.20;2.28;;;8.80;99.90;;;;;;5016875;28;20360;-54
2022/12/30 05:27:52;;;;;;;12.30;2.67;;;8.90;99.90;;;;;;5017090;28;20040;-45
2022/12/30 05:30:18;;;;;;;14.88;2.38;;;8.90;99.90;;;;;;5017126;28;20019;-45
2022/12/30 05:32:44;;;;;;;12.57;2.25;;;8.90;99.90;;;;;;5016889;28;20037;-48
2022/12/30 05:35:10;;;;;;;21.10;2.72;;;9.00;99.90;;;;;;5017015;28;20037;-47
2022/12/30 05:37:35;;;;;;;20.23;3.33;;;9.00;99.90;;;;;;5016618;28;20022;-48
2022/12/30 05:40:01;;;;;;;18.65;2.95;;;9.10;99.90;;;;;;5016592;28;20393;-47
2022/12/30 05:42:26;;;;;;;16.15;3.33;;;9.10;99.90;;;;;;5016971;28;20022;-46
2022/12/30 05:44:52;;;;;;;15.68;3.03;;;9.10;99.90;;;;;;5016649;28;20120;-46
2022/12/30 05:47:17;;;;;;;18.33;3.63;;;9.10;99.90;;;;;;5014312;28;20065;-45
2022/12/30 05:49:43;;;;;;;19.73;2.95;;;9.10;99.90;;;;;;5013528;28;20030;-45
2022/12/30 05:52:09;;;;;;;15.23;3.20;;;9.20;99.90;;;;;;5013617;28;20025;-49
2022/12/30 05:54:34;;;;;;;17.35;2.22;;;9.20;99.90;;;;;;5013597;28;20030;-46
2022/12/30 05:57:00;;;;;;;21.08;3.22;;;9.20;99.90;;;;;;5013442;28;20097;-46
2022/12/30 05:59:25;;;;;;;24.10;3.17;;;9.20;99.90;;;;;;5013869;28;20059;-48
2022/12/30 06:01:51;;;;;;;11.73;2.17;;;9.20;99.90;;;;;;5013398;28;20109;-46
2022/12/30 06:04:20;;;;;;;15.50;2.63;;;9.20;99.90;;;;;;5013516;28;20049;-49
2022/12/30 06:06:46;;;;;;;13.00;2.10;;;9.30;99.90;;;;;;5013203;28;20033;-46
2022/12/30 06:09:11;;;;;;;16.85;2.25;;;9.20;99.90;;;;;;5013215;28;20026;-48
2022/12/30 06:11:37;;;;;;;12.98;2.45;;;9.20;99.90;;;;;;5013232;28;20025;-48
2022/12/30 06:14:03;;;;;;;20.08;2.45;;;9.20;99.90;;;;;;5013110;28;20037;-49
2022/12/30 06:16:28;;;;;;;16.92;2.38;;;9.30;99.90;;;;;;5013263;28;20457;-51
2022/12/30 06:18:54;;;;;;;14.95;2.00;;;9.30;99.90;;;;;;5012974;28;20042;-47
2022/12/30 06:21:19;;;;;;;20.38;2.95;;;9.20;99.90;;;;;;5012730;28;20384;-46
2022/12/30 06:23:45;;;;;;;14.90;2.40;;;9.20;99.90;;;;;;5012923;28;20021;-47
2022/12/30 06:26:11;;;;;;;14.80;2.58;;;9.20;99.90;;;;;;5010036;28;20108;-49
2022/12/30 06:28:36;;;;;;;12.75;2.08;;;9.20;99.90;;;;;;5012966;28;20083;-46
2022/12/30 06:31:02;;;;;;;15.77;2.92;;;9.20;99.90;;;;;;5012703;28;20025;-46
2022/12/30 06:33:28;;;;;;;16.83;2.42;;;9.10;99.90;;;;;;5012757;28;20037;-50
2022/12/30 06:35:53;;;;;;;14.57;2.55;;;9.10;99.90;;;;;;5012693;28;20507;-47
2022/12/30 06:38:19;;;;;;;12.55;1.73;;;9.00;99.90;;;;;;5012588;28;20029;-45
2022/12/30 06:40:45;;;;;;;13.68;2.50;;;9.00;99.90;;;;;;5012655;28;20061;-45
2022/12/30 06:43:12;;;;;;;13.20;2.60;;;9.10;99.90;;;;;;5012544;28;20026;-45
2022/12/30 06:45:37;;;;;;;10.88;2.25;;;9.10;99.90;;;;;;5012630;28;20025;-45
2022/12/30 06:48:03;;;;;;;18.40;2.60;;;9.10;99.90;;;;;;5012467;28;20038;-47
2022/12/30 06:50:29;;;;;;;18.35;3.10;;;9.10;99.90;;;;;;5012400;28;20032;-52
2022/12/30 06:52:54;;;;;;;17.05;2.63;;;9.10;99.90;;;;;;5012323;28;20096;-49
2022/12/30 06:55:21;;;;;;;15.63;2.28;;;9.20;99.90;;;;;;5012204;28;20034;-48
2022/12/30 06:57:47;;;;;;;12.10;1.98;;;9.20;99.90;;;;;;5012243;28;20076;-46
2022/12/30 07:00:13;;;;;;;15.63;2.47;;;9.30;99.90;;;;;;5011391;28;20045;-50
2022/12/30 07:02:39;;;;;;;13.45;2.42;;;9.30;99.90;;;;;;5012320;28;20026;-46
2022/12/30 07:05:05;;;;;;;18.05;2.28;;;9.30;99.90;;;;;;5012040;28;20025;-49
2022/12/30 07:07:31;;;;;;;10.30;2.00;;;9.30;99.90;;;;;;5012265;28;20385;-53
2022/12/30 07:09:57;;;;;;;17.55;2.60;;;9.30;99.90;;;;;;5011801;28;20122;-55
2022/12/30 07:12:22;;;;;;;12.27;2.15;;;9.30;99.90;;;;;;5011828;28;20021;-48
2022/12/30 07:14:48;;;;;;;13.82;2.67;;;9.30;99.90;;;;;;5011284;28;20508;-50
2022/12/30 07:17:14;;;;;;;16.08;2.53;;;9.30;99.90;;;;;;5011707;28;20022;-47
2022/12/30 07:19:39;;;;;;;17.05;3.03;;;9.30;99.90;;;;;;5012193;28;20485;-50
2022/12/30 07:22:05;;;;;;;16.50;2.53;;;9.40;99.90;;;;;;5011398;28;20033;-47
2022/12/30 07:24:31;;;;;;;17.50;2.70;;;9.40;99.90;;;;;;5011613;28;20060;-50
2022/12/30 07:26:56;;;;;;;16.50;3.05;;;9.40;99.90;;;;;;5011590;28;20026;-49
2022/12/30 07:29:22;;;;;;;19.48;2.55;;;9.40;99.90;;;;;;5011495;28;20052;-50
2022/12/30 07:31:47;;;;;;;16.98;2.80;;;9.50;99.90;;;;;;5011839;28;20101;-47
2022/12/30 07:34:13;;;;;;;17.25;2.80;;;9.40;99.90;;;;;;5011572;28;20092;-50
2022/12/30 07:36:39;;;;;;;13.63;2.65;;;9.30;99.90;;;;;;5011448;28;20029;-50
2022/12/30 07:39:06;;;;;;;16.00;2.30;;;9.20;99.90;;;;;;5011786;28;20481;-47
2022/12/30 07:41:33;;;;;;;24.38;2.75;;;9.00;99.90;;;;;;5011490;28;20042;-51
2022/12/30 07:43:58;;;;;;;21.83;3.05;;;9.00;99.90;;;;;;5011332;28;20030;-49
2022/12/30 07:46:24;;;;;;;18.98;2.67;;;9.00;99.90;;;;;;5011299;28;20040;-46
2022/12/30 07:48:50;;;;;;;19.23;3.03;;;8.90;99.90;;;;;;5011242;28;20080;-49
2022/12/30 07:51:17;;;;;;;16.30;3.13;;;8.90;99.90;;;;;;5011525;28;20084;-47
2022/12/30 07:53:44;;;;;;;23.75;3.10;;;8.80;99.90;;;;;;5010427;28;20451;-45
2022/12/30 07:56:12;;;;;;;21.63;2.92;;;8.70;99.90;;;;;;5010807;28;20508;-50
2022/12/30 07:58:38;;;;;;;18.20;2.92;;;8.70;99.90;;;;;;5011295;28;20049;-47
2022/12/30 08:01:06;;;;;;;17.90;2.53;;;8.70;99.90;;;;;;4999915;28;20548;-54
2022/12/30 08:03:31;;;;;;;17.35;3.10;;;8.70;99.90;;;;;;4991364;28;20034;-48
2022/12/30 08:06:02;;;;;;;15.85;3.05;;;8.60;99.90;;;;;;4984126;28;20029;-45
2022/12/30 08:08:27;;;;;;;12.82;2.53;;;8.60;99.90;;;;;;4985975;28;20026;-45
2022/12/30 08:10:55;;;;;;;21.58;2.97;;;8.60;99.90;;;;;;4991112;28;20033;-54
2022/12/30 08:13:20;;;;;;;16.00;3.58;;;8.60;99.90;;;;;;4991532;28;20069;-47
2022/12/30 08:15:46;;;;;;;21.67;3.47;;;8.60;99.90;;;;;;4991215;28;20061;-47
2022/12/30 08:18:12;;;;;;;18.60;2.95;;;8.60;99.90;;;;;;4991654;28;20138;-45
2022/12/30 08:20:37;;;;;;;17.05;3.20;;;8.60;99.90;;;;;;5003784;28;20026;-50
2022/12/30 08:23:03;;;;;;;17.15;2.85;;;8.60;99.90;;;;;;5010935;28;20413;-45
2022/12/30 08:25:28;;;;;;;17.38;3.25;;;8.60;99.90;;;;;;5010821;28;20046;-50
2022/12/30 08:27:54;;;;;;;19.67;3.55;;;8.60;99.90;;;;;;5002280;28;20038;-48
2022/12/30 08:30:19;;;;;;;9.82;2.22;;;8.60;99.90;;;;;;4987237;28;20038;-47
2022/12/30 08:32:45;;;;;;;18.95;3.10;;;8.60;99.90;;;;;;4990880;28;20038;-45
2022/12/30 08:35:11;;;;;;;16.60;2.65;;;8.60;99.90;;;;;;4985429;28;20081;-45
2022/12/30 08:37:36;;;;;;;14.30;2.95;;;8.60;99.90;;;;;;4990553;28;20461;-48
2022/12/30 08:40:03;;;;;;;14.80;3.72;;;8.60;99.90;;;;;;4977608;28;20019;-46
2022/12/30 08:42:29;;;;;;;15.88;3.67;;;8.60;99.90;;;;;;4991053;28;20463;-50
2022/12/30 08:44:54;;;;;;;13.50;2.88;;;8.60;99.90;;;;;;4990701;28;20023;-46
2022/12/30 08:47:20;;;;;;;21.23;3.50;;;8.60;99.90;;;;;;4991171;28;20023;-46
2022/12/30 08:49:45;;;;;;;19.27;3.78;;;8.60;99.90;;;;;;4991069;28;20470;-47
2022/12/30 08:52:11;;;;;;;16.20;3.05;;;8.60;99.90;;;;;;4990687;28;20029;-47
2022/12/30 08:54:37;;;;;;;17.85;3.10;;;8.70;99.90;;;;;;4983648;28;20113;-45
2022/12/30 08:57:02;;;;;;;10.05;3.40;;;8.60;99.90;;;;;;4990659;28;20026;-45
2022/12/30 08:59:28;;;;;;;15.73;3.20;;;8.60;99.90;;;;;;4991015;28;20034;-44
2022/12/30 09:01:54;;;;;;;17.48;3.45;;;8.60;99.90;;;;;;4990320;28;20026;-46
2022/12/30 09:04:19;;;;;;;11.45;2.78;;;8.60;99.90;;;;;;4991066;28;20504;-54
2022/12/30 09:06:45;;;;;;;16.48;3.92;;;8.60;99.90;;;;;;4991194;28;20027;-55
2022/12/30 09:09:14;;;;;;;17.08;3.40;;;8.60;99.90;;;;;;4991106;28;20389;-50
2022/12/30 09:11:41;;;;;;;14.93;3.30;;;8.70;99.90;;;;;;4989212;28;20030;-47
2022/12/30 09:14:08;;;;;;;14.52;2.78;;;8.70;99.90;;;;;;4988697;28;20039;-48
2022/12/30 09:16:34;;;;;;;18.13;2.75;;;8.70;99.90;;;;;;4988768;28;20354;-47
2022/12/30 09:19:00;;;;;;;10.02;2.90;;;8.70;99.90;;;;;;4988900;28;20492;-48
2022/12/30 09:21:26;;;;;;;11.80;2.20;;;8.70;99.90;;;;;;5007691;28;20094;-51
2022/12/30 09:23:52;;;;;;;14.63;2.42;;;8.70;99.90;;;;;;5012685;28;20034;-48
2022/12/30 09:26:20;;;;;;;13.70;2.28;;;8.70;99.90;;;;;;4989784;28;20041;-47
2022/12/30 09:28:47;;;;;;;5.82;1.92;;;8.70;99.90;;;;;;4983455;28;20109;-50
2022/12/30 09:31:13;;;;;;;10.55;2.00;;;8.70;99.90;;;;;;4985792;28;20026;-49
2022/12/30 09:33:38;;;;;;;15.75;2.30;;;8.70;99.90;;;;;;4983893;28;20498;-44
2022/12/30 09:36:06;;;;;;;10.85;1.85;;;8.70;99.90;;;;;;4987702;28;20045;-45
2022/12/30 09:38:31;;;;;;;11.40;2.15;;;8.80;99.90;;;;;;4992746;28;20433;-46
2022/12/30 09:43:15;;;;;;;10.23;2.10;;;8.70;99.90;;;;;;4988701;28;20070;-47
2022/12/30 09:44:20;;;;;;;8.27;1.48;;;8.80;99.90;;;;;;4989934;28;20037;-53
2022/12/30 09:46:51;;;;;;;12.88;2.30;;;8.80;99.90;;;;;;4990865;28;20081;-48
2022/12/30 09:49:27;;;;;;;3.40;1.20;;;8.80;99.90;;;;;;4981361;28;20026;-48
2022/12/30 09:52:23;;;;;;;7.82;1.25;;;8.80;99.90;;;;;;4980173;28;20130;-48
2022/12/30 09:55:11;;;;;;;12.52;2.80;;;8.90;99.90;;;;;;4988283;28;20049;-43
2022/12/30 09:57:37;;;;;;;15.20;1.77;;;8.90;99.90;;;;;;4988205;28;20018;-49
2022/12/30 10:00:11;;;;;;;7.35;1.30;;;8.90;99.90;;;;;;4993231;28;20478;-49
2022/12/30 10:02:58;;;;;;;8.60;1.40;;;8.90;99.90;;;;;;4993748;28;20118;-50
2022/12/30 10:05:40;;;;;;;8.55;1.33;;;9.00;99.90;;;;;;4992067;28;20032;-51
2022/12/30 10:08:26;;;;;;;13.05;1.63;;;9.00;99.90;;;;;;4993518;28;20109;-47
2022/12/30 10:11:07;;;;;;;12.85;1.67;;;9.10;99.90;;;;;;4984363;28;20158;-54
2022/12/30 10:13:48;;;;;;;12.45;1.65;;;9.10;99.90;;;;;;4986013;28;20078;-51
2022/12/30 10:16:52;;;;;;;14.95;3.08;;;9.10;99.90;;;;;;4992102;28;20670;-52
2022/12/30 10:19:33;;;;;;;13.50;2.50;;;9.20;99.90;;;;;;4983479;28;20413;-57
2022/12/30 10:22:20;;;;;;;7.90;1.42;;;9.20;99.90;;;;;;4992955;28;20038;-54
2022/12/30 10:25:13;;;;;;;13.98;2.30;;;9.40;99.90;;;;;;4991879;28;20101;-53
2022/12/30 10:27:48;;;;;;;12.23;1.42;;;9.40;99.90;;;;;;4990047;28;20041;-52
2022/12/30 10:30:16;;;;;;;11.40;1.30;;;9.50;99.90;;;;;;4988644;28;20052;-51
2022/12/30 10:32:59;;;;;;;10.48;1.25;;;9.60;99.90;;;;;;4979466;28;20110;-49
2022/12/30 10:35:31;;;;;;;6.50;1.20;;;9.70;99.90;;;;;;5000828;28;20093;-49
2022/12/30 10:38:08;;;;;;;6.70;1.80;;;9.80;99.90;;;;;;4989613;28;20085;-49
2022/12/30 10:40:58;;;;;;;10.35;1.50;;;9.90;99.90;;;;;;4986037;28;20043;-48
2022/12/30 10:43:33;;;;;;;16.40;1.90;;;10.00;99.90;;;;;;4975881;28;20033;-50
2022/12/30 10:46:04;;;;;;;17.02;2.33;;;10.10;99.90;;;;;;4976248;28;20042;-49
2022/12/30 10:48:48;;;;;;;11.68;2.20;;;10.20;99.90;;;;;;4980694;28;20019;-55
2022/12/30 10:51:16;;;;;;;12.93;1.70;;;10.20;99.90;;;;;;4991614;28;20168;-52
2022/12/30 10:53:46;;;;;;;16.48;2.15;;;10.30;99.90;;;;;;4990583;28;20053;-54
2022/12/30 10:56:19;;;;;;;12.48;2.13;;;10.30;99.90;;;;;;4984014;28;20022;-55
2022/12/30 10:58:47;;;;;;;12.00;1.45;;;10.40;99.90;;;;;;4983874;28;20030;-57
2022/12/30 11:01:21;;;;;;;11.27;1.48;;;10.50;99.90;;;;;;4984854;28;20042;-50
2022/12/30 11:03:50;;;;;;;15.23;2.78;;;10.50;99.90;;;;;;4991803;28;20026;-55
2022/12/30 11:06:38;;;;;;;12.68;1.80;;;10.60;99.90;;;;;;4989051;28;20054;-53
2022/12/30 11:09:13;;;;;;;15.02;1.77;;;10.70;99.90;;;;;;4983709;28;20046;-54
2022/12/30 11:14:43;;;;;;;16.65;1.60;;;10.80;99.90;;;;;;4987572;28;20077;-53
2022/12/30 11:17:19;;;;;;;15.05;1.40;;;10.80;99.90;;;;;;4990652;28;20022;-54
2022/12/30 11:19:53;;;;;;;12.48;1.75;;;10.90;99.90;;;;;;4986837;28;20032;-54
2022/12/30 11:22:20;;;;;;;11.48;1.70;;;11.00;99.90;;;;;;4992178;28;20105;-54
2022/12/30 11:25:02;;;;;;;9.50;1.70;;;11.10;99.90;;;;;;4979974;28;20058;-53
2022/12/30 11:27:41;;;;;;;18.70;2.00;;;11.20;99.90;;;;;;4990632;28;20069;-53
2022/12/30 11:30:21;;;;;;;10.50;2.13;;;11.20;99.90;;;;;;4983118;28;20061;-50
2022/12/30 11:32:46;;;;;;;11.75;1.88;;;11.30;99.90;;;;;;4986311;28;20736;-51
2022/12/30 11:35:41;;;;;;;15.48;1.90;;;11.40;99.90;;;;;;4982098;28;20047;-50
2022/12/30 11:38:33;;;;;;;11.82;1.63;;;11.50;99.90;;;;;;4990701;28;20450;-57
2022/12/30 11:41:17;;;;;;;12.57;1.85;;;11.50;99.90;;;;;;4985220;28;20035;-49
2022/12/30 11:43:43;;;;;;;13.95;1.90;;;11.60;99.90;;;;;;4984790;28;20015;-51
2022/12/30 11:46:12;;;;;;;11.80;1.70;;;11.70;99.90;;;;;;4982014;28;20045;-47
2022/12/30 11:48:50;;;;;;;15.10;1.92;;;11.80;99.90;;;;;;4980526;28;20118;-49
2022/12/30 11:51:22;;;;;;;15.88;1.77;;;11.80;99.90;;;;;;4975522;28;20501;-50
2022/12/30 11:54:00;;;;;;;15.35;1.77;;;11.90;99.90;;;;;;4990188;28;20050;-51
2022/12/30 11:56:26;;;;;;;12.88;1.58;;;12.00;99.90;;;;;;4989049;28;20118;-48
2022/12/30 11:58:52;;;;;;;10.48;1.33;;;12.00;99.90;;;;;;4988068;28;20038;-52
2022/12/30 12:01:18;;;;;;;10.50;1.23;;;12.00;99.90;;;;;;4988620;28;20077;-48
2022/12/30 12:03:52;;;;;;;11.10;1.45;;;12.00;99.90;;;;;;4988630;28;20041;-49
2022/12/30 12:06:18;;;;;;;9.27;1.30;;;12.00;99.90;;;;;;4988554;28;20026;-49
2022/12/30 12:08:49;;;;;;;9.90;1.10;;;12.10;99.90;;;;;;4986710;28;20112;-52
2022/12/30 12:11:22;;;;;;;9.50;2.28;;;12.00;99.90;;;;;;4991408;28;20030;-49
2022/12/30 12:13:55;;;;;;;17.60;2.08;;;12.00;99.90;;;;;;4988884;28;20038;-45
2022/12/30 12:16:37;;;;;;;15.73;2.47;;;12.10;99.90;;;;;;4990944;28;20018;-65
2022/12/30 12:19:19;;;;;;;26.63;3.17;;;12.10;99.90;;;;;;4988388;28;20091;-46
2022/12/30 12:21:48;;;;;;;23.55;2.85;;;12.10;99.90;;;;;;4994788;28;20091;-46
2022/12/30 12:24:31;;;;;;;35.40;3.33;;;12.10;99.90;;;;;;4993747;28;20034;-53
2022/12/30 12:27:05;;;;;;;25.23;3.00;;;12.20;99.90;;;;;;4987290;28;20149;-50
2022/12/30 12:29:33;;;;;;;23.73;4.25;;;12.20;99.90;;;;;;4988729;28;20034;-50
2022/12/30 12:32:34;;;;;;;40.10;4.47;;;12.20;99.90;;;;;;4987413;28;20027;-50
2022/12/30 12:35:25;;;;;;;34.10;6.30;;;12.20;99.90;;;;;;4987560;28;21050;-48
2022/12/30 12:38:02;;;;;;;23.13;4.28;;;12.20;99.90;;;;;;4979046;28;20058;-50
2022/12/30 12:40:45;;;;;;;28.85;5.22;;;12.20;99.90;;;;;;4985719;28;20101;-52
2022/12/30 12:43:32;;;;;;;30.27;4.47;;;12.20;99.90;;;;;;4981689;28;20157;-57
2022/12/30 12:46:32;;;;;;;22.77;3.90;;;12.20;99.90;;;;;;4986572;28;20034;-52
2022/12/30 12:49:30;;;;;;;26.02;4.35;;;12.20;99.90;;;;;;4984098;28;20619;-51
2022/12/30 12:52:05;;;;;;;19.10;3.15;;;12.20;99.90;;;;;;4984829;28;20114;-54
2022/12/30 12:54:45;;;;;;;26.92;3.85;;;12.20;99.90;;;;;;4985792;28;20509;-50
2022/12/30 12:57:41;;;;;;;34.47;4.75;;;12.20;99.90;;;;;;4981151;28;20639;-53
2022/12/30 13:00:16;;;;;;;38.45;5.30;;;12.20;99.90;;;;;;4987296;28;20039;-50
2022/12/30 13:03:00;;;;;;;30.73;4.60;;;12.20;99.90;;;;;;4990533;28;20215;-49
2022/12/30 13:05:31;;;;;;;29.73;5.82;;;12.10;99.90;;;;;;4990969;28;20023;-47
2022/12/30 13:08:20;;;;;;;30.92;5.70;;;12.10;99.90;;;;;;4992130;28;20042;-51
2022/12/30 13:11:14;;;;;;;28.07;4.87;;;12.20;99.90;;;;;;4982477;28;20039;-46
2022/12/30 13:14:04;;;;;;;23.92;4.22;;;12.20;99.90;;;;;;4985465;28;20097;-47
2022/12/30 13:16:38;;;;;;;26.33;3.28;;;12.20;99.90;;;;;;4984624;28;20105;-49
2022/12/30 13:19:05;;;;;;;24.02;3.80;;;12.20;99.90;;;;;;4983887;28;20088;-47
2022/12/30 13:21:31;;;;;;;31.05;3.67;;;12.30;99.90;;;;;;4990869;28;20018;-48
2022/12/30 13:24:04;;;;;;;33.28;4.03;;;12.20;99.90;;;;;;4990502;28;20084;-50
2022/12/30 13:26:32;;;;;;;26.02;3.50;;;12.20;99.90;;;;;;4985216;28;20027;-46
2022/12/30 13:28:59;;;;;;;34.58;4.80;;;12.10;99.90;;;;;;4985561;28;20045;-47
2022/12/30 13:31:53;;;;;;;42.38;4.72;;;12.10;99.90;;;;;;4992094;28;20026;-46
2022/12/30 13:34:52;;;;;;;37.25;4.82;;;12.10;99.90;;;;;;4982263;28;20508;-46
2022/12/30 13:37:30;;;;;;;38.50;5.57;;;12.00;99.90;;;;;;4978790;28;20556;-46
2022/12/30 13:40:20;;;;;;;30.70;4.47;;;12.00;99.90;;;;;;4978003;28;20039;-46
2022/12/30 13:42:56;;;;;;;35.25;5.07;;;12.10;99.90;;;;;;4978212;28;20801;-48
2022/12/30 13:45:29;;;;;;;41.33;5.38;;;12.10;99.90;;;;;;4980408;28;20113;-47
2022/12/30 13:48:10;;;;;;;41.55;5.55;;;12.00;99.90;;;;;;4980454;28;20030;-49
2022/12/30 13:50:37;;;;;;;36.28;5.45;;;12.00;99.90;;;;;;4986464;28;20029;-56
2022/12/30 13:53:05;;;;;;;39.40;4.80;;;12.00;99.90;;;;;;4982529;28;20661;-48
2022/12/30 13:55:36;;;;;;;32.13;4.30;;;12.00;99.90;;;;;;4989827;28;20037;-53
2022/12/30 13:58:05;;;;;;;30.98;4.80;;;12.10;99.90;;;;;;4988398;28;20022;-46
2022/12/30 14:00:34;;;;;;;34.83;5.40;;;12.10;99.90;;;;;;4985956;28;20081;-50